Haines Airport Haines US
ICAO: PAHN
IATA:
Category: Medium
Scheduled Services:

Elevation: 15 ft
TransAlt. 18000 ft.

Airport Communications:
ASOS:135.75
ANCHORAGE CNTR:132.3
CTAF:122.9
JUNEAU RDO:122.6
TWEB:24.5

PAHN Zoom In..

Runways:

(A) RW 08 length 4000 ft width 100 ft
---- / hdg 86

(B) RW 26 length 4000 ft width 100 ft
---- / hdg 266

Location; PAHN
Day. 19 / Time. 03.54 Zulu
* Altimeter: 30.18
* Temperature: 13° c. 55.4°f.
* Wind from: 130° Speed 04 kn.
Dewpoint: 12° c.
Visibility: 10 Statute Miles.
Clouds: Few 2000 ft.
Clouds: Overcast 6000 ft.

PAHN 190354Z AUTO 13004KT 10SM FEW020 OVC060 13/12 A3018 RMK AO2 SLP223 T01330117 TSNO


Wind From 130°
Speed 04 kn.

 
 
jpsmedia.com for Web Design worldairports.se 2018   terms of use